sensor_id;sensor_type;location;lat;lon;timestamp;P1;durP1;ratioP1;P2;durP2;ratioP2
37657;SDS011;23500;53.268;8.308;2022-09-13T00:01:44;7.35;;;6.47;;
37657;SDS011;23500;53.268;8.308;2022-09-13T00:04:10;6.22;;;5.60;;
37657;SDS011;23500;53.268;8.308;2022-09-13T00:06:36;7.13;;;6.03;;
37657;SDS011;23500;53.268;8.308;2022-09-13T00:09:01;6.45;;;5.85;;
37657;SDS011;23500;53.268;8.308;2022-09-13T00:11:28;6.95;;;6.30;;
37657;SDS011;23500;53.268;8.308;2022-09-13T00:13:55;6.53;;;5.93;;
37657;SDS011;23500;53.268;8.308;2022-09-13T00:16:23;6.82;;;6.13;;
37657;SDS011;23500;53.268;8.308;2022-09-13T00:18:50;6.90;;;6.28;;
37657;SDS011;23500;53.268;8.308;2022-09-13T00:21:17;6.35;;;5.75;;
37657;SDS011;23500;53.268;8.308;2022-09-13T00:23:45;6.28;;;5.68;;
37657;SDS011;23500;53.268;8.308;2022-09-13T00:26:13;6.80;;;6.20;;
37657;SDS011;23500;53.268;8.308;2022-09-13T00:29:05;6.82;;;6.22;;
37657;SDS011;23500;53.268;8.308;2022-09-13T00:31:31;6.32;;;5.72;;
37657;SDS011;23500;53.268;8.308;2022-09-13T00:33:59;6.43;;;5.82;;
37657;SDS011;23500;53.268;8.308;2022-09-13T00:36:25;7.50;;;6.50;;
37657;SDS011;23500;53.268;8.308;2022-09-13T00:38:51;6.63;;;5.72;;
37657;SDS011;23500;53.268;8.308;2022-09-13T00:41:18;6.72;;;6.07;;
37657;SDS011;23500;53.268;8.308;2022-09-13T00:43:57;7.65;;;6.15;;
37657;SDS011;23500;53.268;8.308;2022-09-13T00:46:36;6.65;;;6.05;;
37657;SDS011;23500;53.268;8.308;2022-09-13T00:51:38;7.25;;;6.10;;
37657;SDS011;23500;53.268;8.308;2022-09-13T00:54:07;6.72;;;6.00;;
37657;SDS011;23500;53.268;8.308;2022-09-13T00:56:35;5.85;;;5.35;;
37657;SDS011;23500;53.268;8.308;2022-09-13T00:59:07;6.28;;;5.72;;
37657;SDS011;23500;53.268;8.308;2022-09-13T01:01:41;6.88;;;6.28;;
37657;SDS011;23500;53.268;8.308;2022-09-13T01:04:14;7.00;;;6.30;;
37657;SDS011;23500;53.268;8.308;2022-09-13T01:06:41;7.00;;;6.35;;
37657;SDS011;23500;53.268;8.308;2022-09-13T01:09:09;6.85;;;6.13;;
37657;SDS011;23500;53.268;8.308;2022-09-13T01:11:49;6.28;;;5.75;;
37657;SDS011;23500;53.268;8.308;2022-09-13T01:14:28;6.68;;;5.88;;
37657;SDS011;23500;53.268;8.308;2022-09-13T01:16:55;5.97;;;5.38;;
37657;SDS011;23500;53.268;8.308;2022-09-13T01:19:20;7.03;;;6.32;;
37657;SDS011;23500;53.268;8.308;2022-09-13T01:21:51;6.57;;;5.97;;
37657;SDS011;23500;53.268;8.308;2022-09-13T01:30:28;7.03;;;6.40;;
37657;SDS011;23500;53.268;8.308;2022-09-13T01:37:03;6.32;;;5.72;;
37657;SDS011;23500;53.268;8.308;2022-09-13T01:48:33;6.50;;;5.82;;
37657;SDS011;23500;53.268;8.308;2022-09-13T01:53:46;6.72;;;5.95;;
37657;SDS011;23500;53.268;8.308;2022-09-13T01:56:26;6.43;;;5.75;;
37657;SDS011;23500;53.268;8.308;2022-09-13T01:59:09;6.35;;;5.50;;
37657;SDS011;23500;53.268;8.308;2022-09-13T02:01:48;6.15;;;5.55;;
37657;SDS011;23500;53.268;8.308;2022-09-13T02:04:26;6.80;;;6.20;;
37657;SDS011;23500;53.268;8.308;2022-09-13T02:09:26;6.70;;;6.10;;
37657;SDS011;23500;53.268;8.308;2022-09-13T02:12:03;6.55;;;5.95;;
37657;SDS011;23500;53.268;8.308;2022-09-13T02:14:39;6.82;;;6.22;;
37657;SDS011;23500;53.268;8.308;2022-09-13T02:17:09;6.38;;;5.80;;
37657;SDS011;23500;53.268;8.308;2022-09-13T02:19:43;7.05;;;6.45;;
37657;SDS011;23500;53.268;8.308;2022-09-13T02:22:18;6.18;;;5.57;;
37657;SDS011;23500;53.268;8.308;2022-09-13T02:24:50;6.05;;;5.45;;
37657;SDS011;23500;53.268;8.308;2022-09-13T02:27:23;6.80;;;6.05;;
37657;SDS011;23500;53.268;8.308;2022-09-13T02:29:51;6.32;;;5.78;;
37657;SDS011;23500;53.268;8.308;2022-09-13T02:32:26;6.97;;;6.28;;
37657;SDS011;23500;53.268;8.308;2022-09-13T02:35:03;6.18;;;5.57;;
37657;SDS011;23500;53.268;8.308;2022-09-13T02:37:35;6.05;;;5.55;;
37657;SDS011;23500;53.268;8.308;2022-09-13T02:40:04;6.07;;;5.50;;
37657;SDS011;23500;53.268;8.308;2022-09-13T02:42:38;5.93;;;5.40;;
37657;SDS011;23500;53.268;8.308;2022-09-13T02:45:08;5.90;;;5.40;;
37657;SDS011;23500;53.268;8.308;2022-09-13T02:56:07;6.35;;;5.72;;
37657;SDS011;23500;53.268;8.308;2022-09-13T02:59:00;6.18;;;5.65;;
37657;SDS011;23500;53.268;8.308;2022-09-13T03:01:36;6.03;;;5.43;;
37657;SDS011;23500;53.268;8.308;2022-09-13T03:04:03;5.57;;;5.07;;
37657;SDS011;23500;53.268;8.308;2022-09-13T03:06:29;5.25;;;4.85;;
37657;SDS011;23500;53.268;8.308;2022-09-13T03:08:56;6.03;;;5.45;;
37657;SDS011;23500;53.268;8.308;2022-09-13T03:14:40;5.40;;;4.90;;
37657;SDS011;23500;53.268;8.308;2022-09-13T03:25:34;5.32;;;4.90;;
37657;SDS011;23500;53.268;8.308;2022-09-13T03:28:22;5.00;;;4.60;;
37657;SDS011;23500;53.268;8.308;2022-09-13T03:31:18;5.10;;;4.70;;
37657;SDS011;23500;53.268;8.308;2022-09-13T03:33:47;5.72;;;5.22;;
37657;SDS011;23500;53.268;8.308;2022-09-13T03:36:26;5.43;;;4.93;;
37657;SDS011;23500;53.268;8.308;2022-09-13T03:41:49;5.80;;;5.30;;
37657;SDS011;23500;53.268;8.308;2022-09-13T03:44:20;5.47;;;4.97;;
37657;SDS011;23500;53.268;8.308;2022-09-13T03:46:48;5.20;;;4.70;;
37657;SDS011;23500;53.268;8.308;2022-09-13T03:49:17;5.22;;;4.72;;
37657;SDS011;23500;53.268;8.308;2022-09-13T03:51:47;5.30;;;4.80;;
37657;SDS011;23500;53.268;8.308;2022-09-13T03:54:18;5.50;;;5.00;;
37657;SDS011;23500;53.268;8.308;2022-09-13T03:57:10;5.93;;;5.43;;
37657;SDS011;23500;53.268;8.308;2022-09-13T03:59:42;5.38;;;4.88;;
37657;SDS011;23500;53.268;8.308;2022-09-13T04:02:11;5.10;;;4.60;;
37657;SDS011;23500;53.268;8.308;2022-09-13T04:04:40;5.22;;;4.70;;
37657;SDS011;23500;53.268;8.308;2022-09-13T04:07:08;5.25;;;4.78;;
37657;SDS011;23500;53.268;8.308;2022-09-13T04:09:34;5.13;;;4.63;;
37657;SDS011;23500;53.268;8.308;2022-09-13T04:12:00;5.70;;;5.20;;
37657;SDS011;23500;53.268;8.308;2022-09-13T04:14:26;5.70;;;5.20;;
37657;SDS011;23500;53.268;8.308;2022-09-13T04:16:53;4.97;;;4.57;;
37657;SDS011;23500;53.268;8.308;2022-09-13T04:19:19;5.15;;;4.75;;
37657;SDS011;23500;53.268;8.308;2022-09-13T04:21:48;5.00;;;4.60;;
37657;SDS011;23500;53.268;8.308;2022-09-13T04:24:15;5.40;;;5.00;;
37657;SDS011;23500;53.268;8.308;2022-09-13T04:26:42;5.43;;;4.93;;
37657;SDS011;23500;53.268;8.308;2022-09-13T04:29:08;5.13;;;4.72;;
37657;SDS011;23500;53.268;8.308;2022-09-13T04:31:33;5.47;;;4.97;;
37657;SDS011;23500;53.268;8.308;2022-09-13T04:33:59;5.00;;;4.60;;
37657;SDS011;23500;53.268;8.308;2022-09-13T04:36:25;5.28;;;4.85;;
37657;SDS011;23500;53.268;8.308;2022-09-13T04:38:51;5.20;;;4.70;;
37657;SDS011;23500;53.268;8.308;2022-09-13T04:41:16;5.05;;;4.60;;
37657;SDS011;23500;53.268;8.308;2022-09-13T04:43:42;5.10;;;4.70;;
37657;SDS011;23500;53.268;8.308;2022-09-13T04:46:08;5.40;;;4.90;;
37657;SDS011;23500;53.268;8.308;2022-09-13T04:48:34;4.82;;;4.43;;
37657;SDS011;23500;53.268;8.308;2022-09-13T04:51:03;5.18;;;4.72;;
37657;SDS011;23500;53.268;8.308;2022-09-13T04:53:29;5.13;;;4.72;;
37657;SDS011;23500;53.268;8.308;2022-09-13T04:56:02;5.13;;;4.63;;
37657;SDS011;23500;53.268;8.308;2022-09-13T04:58:29;5.60;;;5.10;;
37657;SDS011;23500;53.268;8.308;2022-09-13T05:01:02;5.15;;;4.75;;
37657;SDS011;23500;53.268;8.308;2022-09-13T05:03:30;5.35;;;4.90;;
37657;SDS011;23500;53.268;8.308;2022-09-13T05:08:35;5.15;;;4.75;;
37657;SDS011;23500;53.268;8.308;2022-09-13T05:11:01;4.97;;;4.57;;
37657;SDS011;23500;53.268;8.308;2022-09-13T05:13:28;4.80;;;4.40;;
37657;SDS011;23500;53.268;8.308;2022-09-13T05:15:58;4.95;;;4.55;;
37657;SDS011;23500;53.268;8.308;2022-09-13T05:18:25;5.18;;;4.65;;
37657;SDS011;23500;53.268;8.308;2022-09-13T05:20:55;4.97;;;4.47;;
37657;SDS011;23500;53.268;8.308;2022-09-13T05:23:22;5.47;;;5.00;;
37657;SDS011;23500;53.268;8.308;2022-09-13T05:25:55;4.75;;;4.32;;
37657;SDS011;23500;53.268;8.308;2022-09-13T05:28:24;5.32;;;4.82;;
37657;SDS011;23500;53.268;8.308;2022-09-13T05:31:02;4.95;;;4.55;;
37657;SDS011;23500;53.268;8.308;2022-09-13T05:33:30;5.10;;;4.60;;
37657;SDS011;23500;53.268;8.308;2022-09-13T05:35:58;5.03;;;4.53;;
37657;SDS011;23500;53.268;8.308;2022-09-13T05:38:24;5.00;;;4.55;;
37657;SDS011;23500;53.268;8.308;2022-09-13T05:40:56;4.90;;;4.50;;
37657;SDS011;23500;53.268;8.308;2022-09-13T05:43:24;5.28;;;4.78;;
37657;SDS011;23500;53.268;8.308;2022-09-13T05:45:59;5.22;;;4.72;;
37657;SDS011;23500;53.268;8.308;2022-09-13T05:48:25;4.85;;;4.45;;
37657;SDS011;23500;53.268;8.308;2022-09-13T05:50:51;4.85;;;4.45;;
37657;SDS011;23500;53.268;8.308;2022-09-13T05:53:16;4.47;;;4.07;;
37657;SDS011;23500;53.268;8.308;2022-09-13T05:55:42;4.85;;;4.40;;
37657;SDS011;23500;53.268;8.308;2022-09-13T05:58:08;5.18;;;4.70;;
37657;SDS011;23500;53.268;8.308;2022-09-13T06:00:33;5.15;;;4.65;;
37657;SDS011;23500;53.268;8.308;2022-09-13T06:02:59;5.03;;;4.53;;
37657;SDS011;23500;53.268;8.308;2022-09-13T06:05:24;5.18;;;4.75;;
37657;SDS011;23500;53.268;8.308;2022-09-13T06:07:50;5.22;;;4.70;;
37657;SDS011;23500;53.268;8.308;2022-09-13T06:10:16;4.80;;;4.40;;
37657;SDS011;23500;53.268;8.308;2022-09-13T06:12:42;4.70;;;4.30;;
37657;SDS011;23500;53.268;8.308;2022-09-13T06:15:07;4.70;;;4.30;;
37657;SDS011;23500;53.268;8.308;2022-09-13T06:17:33;4.88;;;4.47;;
37657;SDS011;23500;53.268;8.308;2022-09-13T06:19:59;5.30;;;4.80;;
37657;SDS011;23500;53.268;8.308;2022-09-13T06:22:25;5.22;;;4.70;;
37657;SDS011;23500;53.268;8.308;2022-09-13T06:24:57;4.40;;;4.00;;
37657;SDS011;23500;53.268;8.308;2022-09-13T06:27:25;4.43;;;4.03;;
37657;SDS011;23500;53.268;8.308;2022-09-13T06:29:53;4.55;;;4.15;;
37657;SDS011;23500;53.268;8.308;2022-09-13T06:32:19;4.82;;;4.43;;
37657;SDS011;23500;53.268;8.308;2022-09-13T06:34:45;4.53;;;4.10;;
37657;SDS011;23500;53.268;8.308;2022-09-13T06:37:11;4.53;;;4.15;;
37657;SDS011;23500;53.268;8.308;2022-09-13T06:39:37;4.43;;;4.03;;
37657;SDS011;23500;53.268;8.308;2022-09-13T06:42:03;4.55;;;4.15;;
37657;SDS011;23500;53.268;8.308;2022-09-13T06:44:29;4.40;;;4.00;;
37657;SDS011;23500;53.268;8.308;2022-09-13T06:46:55;4.40;;;4.00;;
37657;SDS011;23500;53.268;8.308;2022-09-13T06:49:20;4.60;;;4.20;;
37657;SDS011;23500;53.268;8.308;2022-09-13T06:51:46;3.88;;;3.53;;
37657;SDS011;23500;53.268;8.308;2022-09-13T06:54:12;4.28;;;3.97;;
37657;SDS011;23500;53.268;8.308;2022-09-13T06:56:38;4.22;;;3.83;;
37657;SDS011;23500;53.268;8.308;2022-09-13T06:59:04;4.15;;;3.75;;
37657;SDS011;23500;53.268;8.308;2022-09-13T07:01:33;4.03;;;3.72;;
37657;SDS011;23500;53.268;8.308;2022-09-13T07:04:01;4.40;;;4.00;;
37657;SDS011;23500;53.268;8.308;2022-09-13T07:06:29;4.30;;;3.90;;
37657;SDS011;23500;53.268;8.308;2022-09-13T07:08:57;3.72;;;3.22;;
37657;SDS011;23500;53.268;8.308;2022-09-13T07:11:24;4.13;;;3.67;;
37657;SDS011;23500;53.268;8.308;2022-09-13T07:13:54;3.92;;;3.63;;
37657;SDS011;23500;53.268;8.308;2022-09-13T07:16:21;4.18;;;3.78;;
37657;SDS011;23500;53.268;8.308;2022-09-13T07:18:50;3.35;;;3.00;;
37657;SDS011;23500;53.268;8.308;2022-09-13T07:21:19;3.00;;;2.70;;
37657;SDS011;23500;53.268;8.308;2022-09-13T07:23:46;3.38;;;3.00;;
37657;SDS011;23500;53.268;8.308;2022-09-13T07:26:12;3.33;;;3.03;;
37657;SDS011;23500;53.268;8.308;2022-09-13T07:28:39;3.75;;;3.33;;
37657;SDS011;23500;53.268;8.308;2022-09-13T07:33:45;3.90;;;3.10;;
37657;SDS011;23500;53.268;8.308;2022-09-13T07:36:12;3.63;;;2.90;;
37657;SDS011;23500;53.268;8.308;2022-09-13T07:38:39;4.18;;;2.97;;
37657;SDS011;23500;53.268;8.308;2022-09-13T07:41:15;3.90;;;3.20;;
37657;SDS011;23500;53.268;8.308;2022-09-13T07:43:42;3.47;;;3.10;;
37657;SDS011;23500;53.268;8.308;2022-09-13T07:46:08;3.33;;;2.78;;
37657;SDS011;23500;53.268;8.308;2022-09-13T07:48:36;7.28;;;3.75;;
37657;SDS011;23500;53.268;8.308;2022-09-13T07:51:07;33.38;;;9.90;;
37657;SDS011;23500;53.268;8.308;2022-09-13T07:53:35;74.78;;;16.83;;
37657;SDS011;23500;53.268;8.308;2022-09-13T07:56:03;86.60;;;19.98;;
37657;SDS011;23500;53.268;8.308;2022-09-13T07:58:31;101.15;;;22.65;;
37657;SDS011;23500;53.268;8.308;2022-09-13T08:01:00;113.78;;;24.80;;
37657;SDS011;23500;53.268;8.308;2022-09-13T08:03:36;133.93;;;28.90;;
37657;SDS011;23500;53.268;8.308;2022-09-13T08:06:03;107.05;;;25.80;;
37657;SDS011;23500;53.268;8.308;2022-09-13T08:08:30;110.97;;;27.50;;
37657;SDS011;23500;53.268;8.308;2022-09-13T08:10:56;109.50;;;24.27;;
37657;SDS011;23500;53.268;8.308;2022-09-13T08:13:23;96.95;;;23.65;;
37657;SDS011;23500;53.268;8.308;2022-09-13T08:15:49;88.55;;;22.23;;
37657;SDS011;23500;53.268;8.308;2022-09-13T08:18:15;88.57;;;23.92;;
37657;SDS011;23500;53.268;8.308;2022-09-13T08:20:42;85.75;;;22.05;;
37657;SDS011;23500;53.268;8.308;2022-09-13T08:23:08;99.75;;;24.55;;
37657;SDS011;23500;53.268;8.308;2022-09-13T08:25:35;80.72;;;23.30;;
37657;SDS011;23500;53.268;8.308;2022-09-13T08:28:05;61.90;;;17.60;;
37657;SDS011;23500;53.268;8.308;2022-09-13T08:30:33;50.28;;;14.32;;
37657;SDS011;23500;53.268;8.308;2022-09-13T08:33:01;49.03;;;15.00;;
37657;SDS011;23500;53.268;8.308;2022-09-13T08:35:28;42.83;;;13.73;;
37657;SDS011;23500;53.268;8.308;2022-09-13T08:37:54;34.08;;;12.55;;
37657;SDS011;23500;53.268;8.308;2022-09-13T08:40:21;40.20;;;13.25;;
37657;SDS011;23500;53.268;8.308;2022-09-13T08:45:27;34.67;;;12.13;;
37657;SDS011;23500;53.268;8.308;2022-09-13T08:47:56;36.70;;;11.23;;
37657;SDS011;23500;53.268;8.308;2022-09-13T08:50:28;31.02;;;11.85;;
37657;SDS011;23500;53.268;8.308;2022-09-13T09:06:41;18.52;;;5.53;;
37657;SDS011;23500;53.268;8.308;2022-09-13T09:09:09;15.15;;;4.63;;
37657;SDS011;23500;53.268;8.308;2022-09-13T09:11:41;17.98;;;5.18;;
37657;SDS011;23500;53.268;8.308;2022-09-13T09:14:34;17.77;;;5.55;;
37657;SDS011;23500;53.268;8.308;2022-09-13T09:17:39;20.13;;;5.25;;
37657;SDS011;23500;53.268;8.308;2022-09-13T09:22:35;16.20;;;5.80;;
37657;SDS011;23500;53.268;8.308;2022-09-13T09:25:00;18.05;;;5.05;;
37657;SDS011;23500;53.268;8.308;2022-09-13T09:27:28;18.48;;;4.90;;
37657;SDS011;23500;53.268;8.308;2022-09-13T09:29:55;12.13;;;5.07;;
37657;SDS011;23500;53.268;8.308;2022-09-13T09:37:29;7.60;;;2.88;;
37657;SDS011;23500;53.268;8.308;2022-09-13T09:39:59;12.02;;;3.50;;
37657;SDS011;23500;53.268;8.308;2022-09-13T09:42:39;6.15;;;2.45;;
37657;SDS011;23500;53.268;8.308;2022-09-13T09:45:19;9.32;;;2.40;;
37657;SDS011;23500;53.268;8.308;2022-09-13T09:47:52;9.25;;;2.65;;
37657;SDS011;23500;53.268;8.308;2022-09-13T09:50:21;7.55;;;2.33;;
37657;SDS011;23500;53.268;8.308;2022-09-13T09:55:43;8.65;;;2.50;;
37657;SDS011;23500;53.268;8.308;2022-09-13T09:58:16;5.72;;;2.10;;
37657;SDS011;23500;53.268;8.308;2022-09-13T10:00:55;6.07;;;2.10;;
37657;SDS011;23500;53.268;8.308;2022-09-13T10:03:26;5.75;;;1.88;;
37657;SDS011;23500;53.268;8.308;2022-09-13T10:06:13;6.57;;;2.28;;
37657;SDS011;23500;53.268;8.308;2022-09-13T10:08:46;7.35;;;1.98;;
37657;SDS011;23500;53.268;8.308;2022-09-13T10:11:36;5.35;;;1.80;;
37657;SDS011;23500;53.268;8.308;2022-09-13T10:14:25;5.28;;;1.63;;
37657;SDS011;23500;53.268;8.308;2022-09-13T10:17:00;5.80;;;1.80;;
37657;SDS011;23500;53.268;8.308;2022-09-13T10:19:36;4.22;;;1.60;;
37657;SDS011;23500;53.268;8.308;2022-09-13T10:22:03;6.90;;;1.67;;
37657;SDS011;23500;53.268;8.308;2022-09-13T10:24:30;5.75;;;1.83;;
37657;SDS011;23500;53.268;8.308;2022-09-13T10:26:57;6.03;;;1.90;;
37657;SDS011;23500;53.268;8.308;2022-09-13T10:29:24;6.68;;;1.75;;
37657;SDS011;23500;53.268;8.308;2022-09-13T10:31:52;3.28;;;1.52;;
37657;SDS011;23500;53.268;8.308;2022-09-13T10:34:22;8.35;;;1.60;;
37657;SDS011;23500;53.268;8.308;2022-09-13T10:39:31;4.57;;;1.67;;
37657;SDS011;23500;53.268;8.308;2022-09-13T10:44:31;5.78;;;1.70;;
37657;SDS011;23500;53.268;8.308;2022-09-13T10:47:00;4.85;;;1.52;;
37657;SDS011;23500;53.268;8.308;2022-09-13T10:52:26;3.22;;;1.40;;
37657;SDS011;23500;53.268;8.308;2022-09-13T10:57:44;4.75;;;1.45;;
37657;SDS011;23500;53.268;8.308;2022-09-13T11:00:17;6.50;;;1.80;;
37657;SDS011;23500;53.268;8.308;2022-09-13T11:13:23;3.65;;;1.33;;
37657;SDS011;23500;53.268;8.308;2022-09-13T11:27:14;2.78;;;1.08;;
37657;SDS011;23500;53.268;8.308;2022-09-13T11:30:02;3.70;;;1.40;;
37657;SDS011;23500;53.268;8.308;2022-09-13T11:32:42;3.05;;;1.20;;
37657;SDS011;23500;53.268;8.308;2022-09-13T11:49:41;3.50;;;1.40;;
37657;SDS011;23500;53.268;8.308;2022-09-13T11:58:14;2.83;;;1.23;;
37657;SDS011;23500;53.268;8.308;2022-09-13T12:01:03;3.38;;;1.30;;
37657;SDS011;23500;53.268;8.308;2022-09-13T12:03:39;2.03;;;1.17;;
37657;SDS011;23500;53.268;8.308;2022-09-13T12:08:51;4.82;;;1.48;;
37657;SDS011;23500;53.268;8.308;2022-09-13T12:11:25;2.97;;;1.20;;
37657;SDS011;23500;53.268;8.308;2022-09-13T12:13:56;3.88;;;1.38;;
37657;SDS011;23500;53.268;8.308;2022-09-13T12:16:29;3.72;;;1.33;;
37657;SDS011;23500;53.268;8.308;2022-09-13T12:19:04;3.75;;;1.15;;
37657;SDS011;23500;53.268;8.308;2022-09-13T12:21:38;3.85;;;1.20;;
37657;SDS011;23500;53.268;8.308;2022-09-13T12:31:59;3.20;;;1.40;;
37657;SDS011;23500;53.268;8.308;2022-09-13T12:34:31;2.20;;;1.35;;
37657;SDS011;23500;53.268;8.308;2022-09-13T12:51:34;2.28;;;1.30;;
37657;SDS011;23500;53.268;8.308;2022-09-13T12:54:08;3.08;;;1.40;;
37657;SDS011;23500;53.268;8.308;2022-09-13T13:02:38;5.75;;;1.40;;
37657;SDS011;23500;53.268;8.308;2022-09-13T13:05:24;3.08;;;1.08;;
37657;SDS011;23500;53.268;8.308;2022-09-13T13:08:05;3.78;;;1.40;;
37657;SDS011;23500;53.268;8.308;2022-09-13T13:10:43;4.03;;;1.30;;
37657;SDS011;23500;53.268;8.308;2022-09-13T13:13:23;3.33;;;1.08;;
37657;SDS011;23500;53.268;8.308;2022-09-13T13:16:02;3.90;;;1.25;;
37657;SDS011;23500;53.268;8.308;2022-09-13T13:18:43;3.63;;;1.30;;
37657;SDS011;23500;53.268;8.308;2022-09-13T13:31:40;2.45;;;1.30;;
37657;SDS011;23500;53.268;8.308;2022-09-13T13:36:47;2.83;;;1.25;;
37657;SDS011;23500;53.268;8.308;2022-09-13T13:39:38;2.35;;;1.08;;
37657;SDS011;23500;53.268;8.308;2022-09-13T13:57:27;4.07;;;1.25;;
37657;SDS011;23500;53.268;8.308;2022-09-13T14:00:12;2.85;;;1.23;;
37657;SDS011;23500;53.268;8.308;2022-09-13T14:08:12;2.13;;;1.20;;
37657;SDS011;23500;53.268;8.308;2022-09-13T14:10:56;1.60;;;1.00;;
37657;SDS011;23500;53.268;8.308;2022-09-13T14:13:49;4.55;;;1.20;;
37657;SDS011;23500;53.268;8.308;2022-09-13T14:19:21;1.95;;;1.13;;
37657;SDS011;23500;53.268;8.308;2022-09-13T14:24:39;1.35;;;1.02;;
37657;SDS011;23500;53.268;8.308;2022-09-13T14:27:15;2.50;;;1.20;;
37657;SDS011;23500;53.268;8.308;2022-09-13T14:29:46;2.70;;;1.30;;
37657;SDS011;23500;53.268;8.308;2022-09-13T14:32:18;2.22;;;1.45;;
37657;SDS011;23500;53.268;8.308;2022-09-13T14:34:51;4.00;;;1.17;;
37657;SDS011;23500;53.268;8.308;2022-09-13T14:37:24;2.17;;;1.17;;
37657;SDS011;23500;53.268;8.308;2022-09-13T14:40:34;2.78;;;1.40;;
37657;SDS011;23500;53.268;8.308;2022-09-13T14:42:46;1.88;;;1.08;;
37657;SDS011;23500;53.268;8.308;2022-09-13T14:45:14;2.33;;;1.20;;
37657;SDS011;23500;53.268;8.308;2022-09-13T14:50:12;2.28;;;1.10;;
37657;SDS011;23500;53.268;8.308;2022-09-13T14:55:15;1.42;;;1.00;;
37657;SDS011;23500;53.268;8.308;2022-09-13T14:57:48;2.15;;;1.20;;
37657;SDS011;23500;53.268;8.308;2022-09-13T15:00:18;1.95;;;1.30;;
37657;SDS011;23500;53.268;8.308;2022-09-13T15:02:50;2.17;;;1.10;;
37657;SDS011;23500;53.268;8.308;2022-09-13T15:05:18;2.13;;;1.13;;
37657;SDS011;23500;53.268;8.308;2022-09-13T15:07:46;3.05;;;1.23;;
37657;SDS011;23500;53.268;8.308;2022-09-13T15:13:07;1.70;;;1.20;;
37657;SDS011;23500;53.268;8.308;2022-09-13T15:15:40;1.40;;;0.82;;
37657;SDS011;23500;53.268;8.308;2022-09-13T15:23:35;2.75;;;1.13;;
37657;SDS011;23500;53.268;8.308;2022-09-13T15:26:05;3.10;;;1.10;;
37657;SDS011;23500;53.268;8.308;2022-09-13T15:28:32;2.08;;;1.17;;
37657;SDS011;23500;53.268;8.308;2022-09-13T15:31:21;1.70;;;1.30;;
37657;SDS011;23500;53.268;8.308;2022-09-13T15:34:11;2.03;;;1.10;;
37657;SDS011;23500;53.268;8.308;2022-09-13T15:36:36;2.03;;;1.30;;
37657;SDS011;23500;53.268;8.308;2022-09-13T15:39:09;2.40;;;1.10;;
37657;SDS011;23500;53.268;8.308;2022-09-13T15:42:02;2.47;;;1.15;;
37657;SDS011;23500;53.268;8.308;2022-09-13T15:44:27;2.13;;;1.08;;
37657;SDS011;23500;53.268;8.308;2022-09-13T15:47:00;2.13;;;1.23;;
37657;SDS011;23500;53.268;8.308;2022-09-13T15:49:29;2.22;;;1.30;;
37657;SDS011;23500;53.268;8.308;2022-09-13T15:51:59;1.42;;;1.00;;
37657;SDS011;23500;53.268;8.308;2022-09-13T15:54:35;2.65;;;1.10;;
37657;SDS011;23500;53.268;8.308;2022-09-13T15:57:06;1.70;;;1.10;;
37657;SDS011;23500;53.268;8.308;2022-09-13T15:59:34;2.10;;;1.20;;
37657;SDS011;23500;53.268;8.308;2022-09-13T16:02:00;2.60;;;1.10;;
37657;SDS011;23500;53.268;8.308;2022-09-13T16:04:36;1.88;;;1.23;;
37657;SDS011;23500;53.268;8.308;2022-09-13T16:07:02;2.70;;;1.05;;
37657;SDS011;23500;53.268;8.308;2022-09-13T16:09:27;1.52;;;0.90;;
37657;SDS011;23500;53.268;8.308;2022-09-13T16:11:53;1.40;;;0.90;;
37657;SDS011;23500;53.268;8.308;2022-09-13T16:14:19;1.90;;;1.05;;
37657;SDS011;23500;53.268;8.308;2022-09-13T16:16:45;2.10;;;1.10;;
37657;SDS011;23500;53.268;8.308;2022-09-13T16:19:16;1.70;;;1.10;;
37657;SDS011;23500;53.268;8.308;2022-09-13T16:21:44;1.17;;;1.08;;
37657;SDS011;23500;53.268;8.308;2022-09-13T16:24:10;2.20;;;1.20;;
37657;SDS011;23500;53.268;8.308;2022-09-13T16:26:36;1.58;;;1.00;;
37657;SDS011;23500;53.268;8.308;2022-09-13T16:29:02;2.25;;;1.10;;
37657;SDS011;23500;53.268;8.308;2022-09-13T16:31:28;2.40;;;1.10;;
37657;SDS011;23500;53.268;8.308;2022-09-13T16:33:53;2.75;;;1.10;;
37657;SDS011;23500;53.268;8.308;2022-09-13T16:36:19;1.00;;;0.90;;
37657;SDS011;23500;53.268;8.308;2022-09-13T16:38:45;2.33;;;1.10;;
37657;SDS011;23500;53.268;8.308;2022-09-13T16:41:11;1.67;;;1.00;;
37657;SDS011;23500;53.268;8.308;2022-09-13T16:43:37;2.45;;;1.00;;
37657;SDS011;23500;53.268;8.308;2022-09-13T16:46:07;1.52;;;1.02;;
37657;SDS011;23500;53.268;8.308;2022-09-13T16:48:33;2.55;;;0.90;;
37657;SDS011;23500;53.268;8.308;2022-09-13T16:51:02;1.75;;;0.90;;
37657;SDS011;23500;53.268;8.308;2022-09-13T16:53:31;1.20;;;1.00;;
37657;SDS011;23500;53.268;8.308;2022-09-13T16:56:04;2.53;;;1.27;;
37657;SDS011;23500;53.268;8.308;2022-09-13T16:58:38;1.35;;;0.88;;
37657;SDS011;23500;53.268;8.308;2022-09-13T17:01:06;1.75;;;1.00;;
37657;SDS011;23500;53.268;8.308;2022-09-13T17:03:33;1.83;;;1.20;;
37657;SDS011;23500;53.268;8.308;2022-09-13T17:06:04;1.20;;;1.10;;
37657;SDS011;23500;53.268;8.308;2022-09-13T17:08:31;1.60;;;1.10;;
37657;SDS011;23500;53.268;8.308;2022-09-13T17:10:58;1.38;;;1.08;;
37657;SDS011;23500;53.268;8.308;2022-09-13T17:13:24;1.55;;;1.10;;
37657;SDS011;23500;53.268;8.308;2022-09-13T17:15:50;1.98;;;1.15;;
37657;SDS011;23500;53.268;8.308;2022-09-13T17:18:16;2.55;;;1.17;;
37657;SDS011;23500;53.268;8.308;2022-09-13T17:20:43;1.20;;;0.93;;
37657;SDS011;23500;53.268;8.308;2022-09-13T17:23:13;2.05;;;1.00;;
37657;SDS011;23500;53.268;8.308;2022-09-13T17:25:40;1.05;;;0.90;;
37657;SDS011;23500;53.268;8.308;2022-09-13T17:28:10;1.83;;;1.00;;
37657;SDS011;23500;53.268;8.308;2022-09-13T17:30:39;1.95;;;1.00;;
37657;SDS011;23500;53.268;8.308;2022-09-13T17:33:05;1.42;;;1.00;;
37657;SDS011;23500;53.268;8.308;2022-09-13T17:35:32;1.45;;;1.10;;
37657;SDS011;23500;53.268;8.308;2022-09-13T17:37:58;2.92;;;1.35;;
37657;SDS011;23500;53.268;8.308;2022-09-13T17:40:25;2.65;;;1.33;;
37657;SDS011;23500;53.268;8.308;2022-09-13T17:42:52;5.65;;;1.40;;
37657;SDS011;23500;53.268;8.308;2022-09-13T17:45:18;3.90;;;1.30;;
37657;SDS011;23500;53.268;8.308;2022-09-13T17:47:44;4.05;;;1.45;;
37657;SDS011;23500;53.268;8.308;2022-09-13T17:50:11;2.92;;;1.35;;
37657;SDS011;23500;53.268;8.308;2022-09-13T17:52:37;5.20;;;1.38;;
37657;SDS011;23500;53.268;8.308;2022-09-13T17:55:03;2.53;;;1.40;;
37657;SDS011;23500;53.268;8.308;2022-09-13T17:57:29;5.05;;;1.40;;
37657;SDS011;23500;53.268;8.308;2022-09-13T17:59:55;4.22;;;1.42;;
37657;SDS011;23500;53.268;8.308;2022-09-13T18:02:21;3.47;;;1.67;;
37657;SDS011;23500;53.268;8.308;2022-09-13T18:04:50;4.15;;;1.38;;
37657;SDS011;23500;53.268;8.308;2022-09-13T18:07:16;3.80;;;1.25;;
37657;SDS011;23500;53.268;8.308;2022-09-13T18:09:42;2.20;;;1.48;;
37657;SDS011;23500;53.268;8.308;2022-09-13T18:12:08;2.78;;;1.08;;
37657;SDS011;23500;53.268;8.308;2022-09-13T18:14:35;2.95;;;1.10;;
37657;SDS011;23500;53.268;8.308;2022-09-13T18:17:01;5.20;;;1.45;;
37657;SDS011;23500;53.268;8.308;2022-09-13T18:19:29;2.35;;;1.25;;
37657;SDS011;23500;53.268;8.308;2022-09-13T18:21:56;3.25;;;1.10;;
37657;SDS011;23500;53.268;8.308;2022-09-13T18:24:22;5.13;;;1.35;;
37657;SDS011;23500;53.268;8.308;2022-09-13T18:26:47;2.15;;;1.10;;
37657;SDS011;23500;53.268;8.308;2022-09-13T18:29:13;3.40;;;1.40;;
37657;SDS011;23500;53.268;8.308;2022-09-13T18:31:39;2.63;;;1.20;;
37657;SDS011;23500;53.268;8.308;2022-09-13T18:34:08;2.85;;;1.20;;
37657;SDS011;23500;53.268;8.308;2022-09-13T18:36:35;3.42;;;1.20;;
37657;SDS011;23500;53.268;8.308;2022-09-13T18:39:02;2.63;;;1.00;;
37657;SDS011;23500;53.268;8.308;2022-09-13T18:41:35;2.83;;;1.27;;
37657;SDS011;23500;53.268;8.308;2022-09-13T18:44:04;2.03;;;1.10;;